N2JW KLAS-KSAT
Flight info
| Callsign | N2JW |
|---|---|
| Flight time | N/A |
| Altitude | 29000 |
| Route | NIITZ4 SSKEE INW J86 FST MOPPP DNKIN2 |
| Aircraft | PC12/L-SDFGRWY/S |
Departure
| Time | 2026-05-06 05:05 |
|---|---|
| Airport | Harry Reid International Airport (KLAS) |
Arrival
| Time | N/A |
|---|---|
| Airport | San Antonio International Airport (KSAT) |
| Time | Latitude | Longitude | Altitude | Speed | Heading |
|---|---|---|---|---|---|
| 2026-05-06 04:33 | 36.08061 | -115.17066 | 2133 ft | 0 kts | 269° |
| 2026-05-06 04:50 | 36.08061 | -115.17068 | 2133 ft | 1 kts | 270° |
| 2026-05-06 04:50 | 36.08081 | -115.17081 | 2134 ft | 6 kts | 355° |
| 2026-05-06 04:50 | 36.08098 | -115.17082 | 2134 ft | 3 kts | 0° |
| 2026-05-06 04:50 | 36.08129 | -115.17082 | 2134 ft | 4 kts | 359° |
| 2026-05-06 04:51 | 36.08146 | -115.17074 | 2134 ft | 5 kts | 59° |
| 2026-05-06 04:51 | 36.08148 | -115.17057 | 2133 ft | 0 kts | 93° |
| 2026-05-06 04:53 | 36.08148 | -115.17032 | 2131 ft | 6 kts | 89° |
| 2026-05-06 04:53 | 36.08150 | -115.16964 | 2128 ft | 7 kts | 88° |
| 2026-05-06 04:53 | 36.08181 | -115.16905 | 2127 ft | 10 kts | 26° |
| 2026-05-06 04:54 | 36.08256 | -115.16863 | 2127 ft | 14 kts | 25° |
| 2026-05-06 04:54 | 36.08353 | -115.16808 | 2122 ft | 13 kts | 25° |
| 2026-05-06 04:54 | 36.08422 | -115.16769 | 2121 ft | 7 kts | 25° |
| 2026-05-06 04:54 | 36.08452 | -115.16751 | 2121 ft | 5 kts | 25° |
| 2026-05-06 04:55 | 36.08495 | -115.16726 | 2121 ft | 8 kts | 24° |
| 2026-05-06 04:55 | 36.08556 | -115.16692 | 2121 ft | 11 kts | 25° |
| 2026-05-06 04:55 | 36.08632 | -115.16649 | 2120 ft | 13 kts | 25° |
| 2026-05-06 04:55 | 36.08714 | -115.16601 | 2122 ft | 13 kts | 25° |
| 2026-05-06 04:56 | 36.08793 | -115.16555 | 2124 ft | 13 kts | 26° |
| 2026-05-06 04:56 | 36.08877 | -115.16507 | 2124 ft | 13 kts | 25° |
| 2026-05-06 04:56 | 36.08964 | -115.16458 | 2123 ft | 15 kts | 24° |
| 2026-05-06 04:56 | 36.09055 | -115.16405 | 2121 ft | 15 kts | 25° |
| 2026-05-06 04:57 | 36.09157 | -115.16348 | 2117 ft | 16 kts | 25° |
| 2026-05-06 04:57 | 36.09257 | -115.16291 | 2115 ft | 17 kts | 25° |
| 2026-05-06 04:57 | 36.09364 | -115.16229 | 2114 ft | 18 kts | 24° |
| 2026-05-06 04:57 | 36.09472 | -115.16167 | 2113 ft | 17 kts | 25° |
| 2026-05-06 04:58 | 36.09576 | -115.16108 | 2116 ft | 16 kts | 25° |
| 2026-05-06 04:58 | 36.09673 | -115.16053 | 2117 ft | 15 kts | 25° |
| 2026-05-06 04:58 | 36.09751 | -115.16007 | 2117 ft | 11 kts | 24° |
| 2026-05-06 04:58 | 36.09820 | -115.15968 | 2119 ft | 11 kts | 25° |
| 2026-05-06 04:59 | 36.09894 | -115.15925 | 2119 ft | 11 kts | 25° |
| 2026-05-06 04:59 | 36.09947 | -115.15886 | 2118 ft | 7 kts | 55° |
| 2026-05-06 04:59 | 36.09967 | -115.15825 | 2118 ft | 9 kts | 70° |
| 2026-05-06 04:59 | 36.09978 | -115.15785 | 2119 ft | 0 kts | 72° |
| 2026-05-06 05:02 | 36.09981 | -115.15775 | 2100 ft | 4 kts | 74° |
| 2026-05-06 05:02 | 36.09976 | -115.15718 | 2120 ft | 7 kts | 112° |
| 2026-05-06 05:03 | 36.09940 | -115.15666 | 2119 ft | 10 kts | 175° |
| 2026-05-06 05:03 | 36.09925 | -115.15670 | 2119 ft | 0 kts | 207° |
| 2026-05-06 05:04 | 36.09924 | -115.15670 | 2119 ft | 0 kts | 206° |
| 2026-05-06 05:04 | 36.09913 | -115.15677 | 2119 ft | 13 kts | 205° |
| 2026-05-06 05:04 | 36.09669 | -115.15817 | 2118 ft | 63 kts | 204° |
| 2026-05-06 05:05 | 36.09156 | -115.16109 | 2161 ft | 92 kts | 203° |
| 2026-05-06 05:05 | 36.08526 | -115.16438 | 2428 ft | 103 kts | 205° |
| 2026-05-06 05:05 | 36.07834 | -115.16843 | 2744 ft | 115 kts | 205° |
| 2026-05-06 05:05 | 36.07057 | -115.17284 | 3131 ft | 126 kts | 205° |
| 2026-05-06 05:06 | 36.06245 | -115.17709 | 3629 ft | 128 kts | 206° |
| 2026-05-06 05:06 | 36.05412 | -115.18171 | 4140 ft | 129 kts | 208° |
| 2026-05-06 05:06 | 36.04602 | -115.18610 | 4689 ft | 132 kts | 207° |
| 2026-05-06 05:06 | 36.03714 | -115.19100 | 5065 ft | 143 kts | 204° |
| 2026-05-06 05:07 | 36.02797 | -115.19602 | 5572 ft | 144 kts | 206° |
| 2026-05-06 05:07 | 36.01857 | -115.20112 | 6088 ft | 150 kts | 204° |
| 2026-05-06 05:07 | 36.00891 | -115.20642 | 6628 ft | 152 kts | 204° |
| 2026-05-06 05:07 | 35.99887 | -115.21114 | 7122 ft | 157 kts | 198° |
| 2026-05-06 05:08 | 35.98837 | -115.21555 | 7626 ft | 162 kts | 200° |
| 2026-05-06 05:08 | 35.97762 | -115.22013 | 8176 ft | 165 kts | 198° |
| 2026-05-06 05:08 | 35.96606 | -115.22090 | 8702 ft | 169 kts | 167° |
| 2026-05-06 05:08 | 35.95454 | -115.21796 | 9308 ft | 170 kts | 167° |
| 2026-05-06 05:09 | 35.94279 | -115.21523 | 9837 ft | 175 kts | 167° |
| 2026-05-06 05:09 | 35.93081 | -115.21235 | 10391 ft | 175 kts | 166° |
| 2026-05-06 05:09 | 35.91913 | -115.20811 | 10927 ft | 174 kts | 147° |
| 2026-05-06 05:09 | 35.91002 | -115.19864 | 11490 ft | 170 kts | 122° |
| 2026-05-06 05:10 | 35.90388 | -115.18634 | 12057 ft | 169 kts | 115° |
| 2026-05-06 05:10 | 35.89783 | -115.17404 | 12652 ft | 169 kts | 115° |
| 2026-05-06 05:10 | 35.89176 | -115.16162 | 13251 ft | 168 kts | 114° |
| 2026-05-06 05:10 | 35.88573 | -115.14917 | 13822 ft | 170 kts | 114° |
| 2026-05-06 05:11 | 35.87967 | -115.13664 | 14329 ft | 170 kts | 114° |
| 2026-05-06 05:11 | 35.87356 | -115.12409 | 14810 ft | 172 kts | 114° |
| 2026-05-06 05:11 | 35.86820 | -115.11108 | 15313 ft | 168 kts | 101° |
| 2026-05-06 05:11 | 35.86657 | -115.09705 | 15833 ft | 164 kts | 83° |
| 2026-05-06 05:12 | 35.86742 | -115.08305 | 16355 ft | 165 kts | 81° |
| 2026-05-06 05:12 | 35.86813 | -115.06891 | 16871 ft | 166 kts | 81° |
| 2026-05-06 05:12 | 35.86890 | -115.05479 | 17384 ft | 167 kts | 81° |
| 2026-05-06 05:12 | 35.86970 | -115.04024 | 17923 ft | 169 kts | 82° |
| 2026-05-06 05:13 | 35.87051 | -115.02588 | 18417 ft | 171 kts | 82° |
| 2026-05-06 05:13 | 35.87130 | -115.01128 | 18903 ft | 170 kts | 82° |
| 2026-05-06 05:13 | 35.87210 | -114.99671 | 19367 ft | 170 kts | 81° |
| 2026-05-06 05:13 | 35.87291 | -114.98214 | 19857 ft | 171 kts | 81° |
| 2026-05-06 05:14 | 35.87371 | -114.96751 | 20352 ft | 171 kts | 81° |
| 2026-05-06 05:14 | 35.87451 | -114.95284 | 20849 ft | 171 kts | 81° |
| 2026-05-06 05:14 | 35.87531 | -114.93820 | 21342 ft | 171 kts | 80° |
| 2026-05-06 05:14 | 35.87612 | -114.92351 | 21830 ft | 172 kts | 80° |
| 2026-05-06 05:15 | 35.87691 | -114.90876 | 22315 ft | 172 kts | 80° |
| 2026-05-06 05:15 | 35.87772 | -114.89402 | 22791 ft | 173 kts | 80° |
| 2026-05-06 05:15 | 35.87851 | -114.87927 | 23271 ft | 173 kts | 79° |
| 2026-05-06 05:15 | 35.87930 | -114.86456 | 23735 ft | 171 kts | 79° |
| 2026-05-06 05:16 | 35.88009 | -114.84999 | 24166 ft | 169 kts | 79° |
| 2026-05-06 05:16 | 35.88086 | -114.83561 | 24603 ft | 167 kts | 78° |
| 2026-05-06 05:16 | 35.88163 | -114.82143 | 25044 ft | 165 kts | 78° |
| 2026-05-06 05:16 | 35.88237 | -114.80751 | 25482 ft | 163 kts | 78° |
| 2026-05-06 05:17 | 35.88312 | -114.79366 | 25920 ft | 161 kts | 77° |
| 2026-05-06 05:17 | 35.88385 | -114.77996 | 26366 ft | 159 kts | 77° |
| 2026-05-06 05:17 | 35.88456 | -114.76645 | 26806 ft | 157 kts | 76° |
| 2026-05-06 05:17 | 35.88528 | -114.75306 | 27298 ft | 155 kts | 76° |
| 2026-05-06 05:18 | 35.88597 | -114.74007 | 27792 ft | 153 kts | 75° |
| 2026-05-06 05:18 | 35.88667 | -114.72707 | 28318 ft | 150 kts | 75° |
| 2026-05-06 05:18 | 35.88738 | -114.71419 | 28821 ft | 153 kts | 75° |
| 2026-05-06 05:18 | 35.88820 | -114.70024 | 28934 ft | 175 kts | 76° |
| 2026-05-06 05:19 | 35.88877 | -114.68981 | 28936 ft | 191 kts | 77° |
| 2026-05-06 05:19 | 35.88963 | -114.67256 | 28939 ft | 211 kts | 78° |
| 2026-05-06 05:19 | 35.89059 | -114.65368 | 28926 ft | 230 kts | 78° |
| 2026-05-06 05:19 | 35.89163 | -114.63325 | 28902 ft | 244 kts | 78° |
| 2026-05-06 05:20 | 35.89262 | -114.61257 | 28886 ft | 232 kts | 79° |
| 2026-05-06 05:20 | 35.89358 | -114.59304 | 28865 ft | 228 kts | 78° |
| 2026-05-06 05:20 | 35.89469 | -114.57319 | 28874 ft | 234 kts | 78° |
| 2026-05-06 05:20 | 35.89572 | -114.55308 | 28865 ft | 235 kts | 78° |
| 2026-05-06 05:21 | 35.89672 | -114.53306 | 28853 ft | 232 kts | 78° |
| 2026-05-06 05:21 | 35.89702 | -114.51315 | 28839 ft | 233 kts | 82° |
| 2026-05-06 05:21 | 35.89687 | -114.49319 | 28831 ft | 231 kts | 82° |
| 2026-05-06 05:21 | 35.89681 | -114.47351 | 28819 ft | 230 kts | 81° |
| 2026-05-06 05:22 | 35.89674 | -114.45380 | 28809 ft | 229 kts | 82° |
| 2026-05-06 05:22 | 35.89666 | -114.43432 | 28803 ft | 231 kts | 82° |
| 2026-05-06 05:22 | 35.89656 | -114.41438 | 28805 ft | 234 kts | 82° |
| 2026-05-06 05:22 | 35.89645 | -114.39415 | 28809 ft | 236 kts | 82° |
| 2026-05-06 05:23 | 35.89633 | -114.37393 | 28819 ft | 238 kts | 82° |
| 2026-05-06 05:23 | 35.89622 | -114.35346 | 28822 ft | 238 kts | 82° |
| 2026-05-06 05:23 | 35.89596 | -114.31291 | 28816 ft | 234 kts | 82° |
| 2026-05-06 05:24 | 35.89584 | -114.29291 | 28820 ft | 234 kts | 82° |
| 2026-05-06 05:24 | 35.89571 | -114.27287 | 28818 ft | 233 kts | 82° |
| 2026-05-06 05:24 | 35.89560 | -114.25288 | 28822 ft | 233 kts | 82° |
| 2026-05-06 05:24 | 35.89548 | -114.23304 | 28823 ft | 233 kts | 82° |
| 2026-05-06 05:25 | 35.89533 | -114.21307 | 28823 ft | 233 kts | 82° |
| 2026-05-06 05:25 | 35.89519 | -114.19314 | 28822 ft | 232 kts | 82° |
| 2026-05-06 05:25 | 35.89505 | -114.17320 | 28821 ft | 232 kts | 82° |
| 2026-05-06 05:25 | 35.89490 | -114.15337 | 28818 ft | 231 kts | 82° |
| 2026-05-06 05:26 | 35.89476 | -114.13343 | 28816 ft | 232 kts | 82° |
| 2026-05-06 05:26 | 35.89462 | -114.11346 | 28830 ft | 233 kts | 82° |
| 2026-05-06 05:26 | 35.89446 | -114.09331 | 28837 ft | 236 kts | 82° |
| 2026-05-06 05:26 | 35.89430 | -114.07330 | 28842 ft | 237 kts | 82° |
| 2026-05-06 05:27 | 35.89413 | -114.05288 | 28840 ft | 239 kts | 82° |
| 2026-05-06 05:27 | 35.89395 | -114.03248 | 28840 ft | 237 kts | 82° |
| 2026-05-06 05:27 | 35.89377 | -114.01230 | 28836 ft | 235 kts | 82° |
| 2026-05-06 05:27 | 35.89360 | -113.99224 | 28839 ft | 233 kts | 82° |
| 2026-05-06 05:28 | 35.89342 | -113.97227 | 28837 ft | 232 kts | 82° |
| 2026-05-06 05:28 | 35.89326 | -113.95234 | 28839 ft | 232 kts | 82° |
| 2026-05-06 05:28 | 35.89309 | -113.93248 | 28842 ft | 232 kts | 82° |
| 2026-05-06 05:28 | 35.89289 | -113.91255 | 28836 ft | 232 kts | 82° |
| 2026-05-06 05:29 | 35.89268 | -113.89266 | 28839 ft | 232 kts | 82° |
| 2026-05-06 05:29 | 35.89255 | -113.87253 | 28855 ft | 235 kts | 82° |
| 2026-05-06 05:29 | 35.89235 | -113.85245 | 28859 ft | 237 kts | 82° |
| 2026-05-06 05:29 | 35.89213 | -113.83201 | 28857 ft | 239 kts | 82° |
| 2026-05-06 05:30 | 35.89190 | -113.81161 | 28863 ft | 238 kts | 82° |
| 2026-05-06 05:30 | 35.89169 | -113.79127 | 28861 ft | 236 kts | 82° |
| 2026-05-06 05:30 | 35.89148 | -113.77101 | 28861 ft | 235 kts | 82° |
| 2026-05-06 05:30 | 35.89127 | -113.75084 | 28857 ft | 235 kts | 82° |
| 2026-05-06 05:31 | 35.89106 | -113.73065 | 28868 ft | 235 kts | 83° |
| 2026-05-06 05:31 | 35.89084 | -113.71046 | 28869 ft | 236 kts | 83° |
| 2026-05-06 05:31 | 35.89061 | -113.69019 | 28870 ft | 236 kts | 83° |
| 2026-05-06 05:31 | 35.89037 | -113.66993 | 28866 ft | 237 kts | 82° |
| 2026-05-06 05:32 | 35.89016 | -113.64958 | 28865 ft | 237 kts | 82° |
| 2026-05-06 05:32 | 35.88993 | -113.62941 | 28850 ft | 238 kts | 83° |
| 2026-05-06 05:32 | 35.88964 | -113.60900 | 28879 ft | 238 kts | 82° |
| 2026-05-06 05:32 | 35.88940 | -113.58871 | 28868 ft | 235 kts | 82° |
| 2026-05-06 05:33 | 35.88918 | -113.56866 | 28890 ft | 235 kts | 82° |
| 2026-05-06 05:33 | 35.88899 | -113.54826 | 28889 ft | 239 kts | 82° |
| 2026-05-06 05:33 | 35.88796 | -113.52757 | 28885 ft | 244 kts | 89° |
| 2026-05-06 05:33 | 35.88489 | -113.50690 | 28886 ft | 245 kts | 90° |
| 2026-05-06 05:34 | 35.88194 | -113.48626 | 28892 ft | 243 kts | 90° |
| 2026-05-06 05:34 | 35.87908 | -113.46565 | 28894 ft | 243 kts | 90° |
| 2026-05-06 05:34 | 35.87612 | -113.44503 | 28888 ft | 243 kts | 90° |
| 2026-05-06 05:34 | 35.87320 | -113.42486 | 28899 ft | 242 kts | 90° |
| 2026-05-06 05:35 | 35.87027 | -113.40432 | 28896 ft | 243 kts | 90° |
| 2026-05-06 05:35 | 35.86734 | -113.38380 | 28897 ft | 244 kts | 90° |
| 2026-05-06 05:35 | 35.86437 | -113.36320 | 28907 ft | 244 kts | 90° |
| 2026-05-06 05:35 | 35.86138 | -113.34238 | 28909 ft | 246 kts | 90° |
| 2026-05-06 05:36 | 35.85837 | -113.32161 | 28904 ft | 246 kts | 90° |
| 2026-05-06 05:36 | 35.85537 | -113.30085 | 28904 ft | 245 kts | 90° |
| 2026-05-06 05:36 | 35.85239 | -113.28014 | 28898 ft | 244 kts | 90° |
| 2026-05-06 05:36 | 35.84947 | -113.26001 | 28902 ft | 240 kts | 91° |
| 2026-05-06 05:37 | 35.84652 | -113.23984 | 28904 ft | 241 kts | 91° |
| 2026-05-06 05:37 | 35.84359 | -113.21942 | 28914 ft | 243 kts | 91° |
| 2026-05-06 05:37 | 35.84060 | -113.19875 | 28917 ft | 245 kts | 91° |
| 2026-05-06 05:37 | 35.83758 | -113.17807 | 28917 ft | 245 kts | 91° |
| 2026-05-06 05:38 | 35.83455 | -113.15737 | 28918 ft | 244 kts | 91° |
| 2026-05-06 05:38 | 35.83154 | -113.13676 | 28920 ft | 243 kts | 91° |
| 2026-05-06 05:38 | 35.82859 | -113.11650 | 28913 ft | 242 kts | 91° |
| 2026-05-06 05:38 | 35.82561 | -113.09608 | 28927 ft | 242 kts | 91° |
| 2026-05-06 05:39 | 35.82263 | -113.07566 | 28929 ft | 242 kts | 91° |
| 2026-05-06 05:39 | 35.81964 | -113.05523 | 28927 ft | 242 kts | 91° |
| 2026-05-06 05:39 | 35.81663 | -113.03481 | 28923 ft | 242 kts | 91° |
| 2026-05-06 05:39 | 35.81364 | -113.01441 | 28923 ft | 242 kts | 91° |
| 2026-05-06 05:40 | 35.81064 | -112.99401 | 28932 ft | 242 kts | 91° |
| 2026-05-06 05:40 | 35.80763 | -112.97357 | 28935 ft | 242 kts | 91° |
| 2026-05-06 05:40 | 35.80462 | -112.95318 | 28937 ft | 242 kts | 91° |
| 2026-05-06 05:40 | 35.80160 | -112.93269 | 28936 ft | 242 kts | 91° |
| 2026-05-06 05:41 | 35.79861 | -112.91248 | 28936 ft | 242 kts | 91° |
| 2026-05-06 05:41 | 35.79560 | -112.89208 | 28935 ft | 242 kts | 91° |
| 2026-05-06 05:41 | 35.79257 | -112.87162 | 28935 ft | 243 kts | 91° |
| 2026-05-06 05:41 | 35.78953 | -112.85119 | 28936 ft | 243 kts | 91° |
| 2026-05-06 05:42 | 35.78650 | -112.83074 | 28942 ft | 243 kts | 91° |
| 2026-05-06 05:42 | 35.78346 | -112.81030 | 28941 ft | 243 kts | 91° |
| 2026-05-06 05:42 | 35.78041 | -112.78982 | 28941 ft | 243 kts | 91° |
| 2026-05-06 05:42 | 35.77736 | -112.76937 | 28940 ft | 243 kts | 91° |
| 2026-05-06 05:43 | 35.77431 | -112.74890 | 28947 ft | 243 kts | 91° |
| 2026-05-06 05:43 | 35.77125 | -112.72849 | 28950 ft | 243 kts | 91° |
| 2026-05-06 05:43 | 35.76819 | -112.70801 | 28953 ft | 243 kts | 91° |
| 2026-05-06 05:43 | 35.76514 | -112.68761 | 28948 ft | 243 kts | 91° |
| 2026-05-06 05:44 | 35.76212 | -112.66744 | 28956 ft | 243 kts | 91° |
| 2026-05-06 05:44 | 35.75906 | -112.64698 | 28954 ft | 243 kts | 91° |
| 2026-05-06 05:44 | 35.75597 | -112.62626 | 28956 ft | 243 kts | 91° |
| 2026-05-06 05:44 | 35.75295 | -112.60611 | 28953 ft | 243 kts | 92° |
| 2026-05-06 05:45 | 35.74987 | -112.58563 | 28959 ft | 242 kts | 92° |
| 2026-05-06 05:45 | 35.74681 | -112.56522 | 28961 ft | 242 kts | 92° |
| 2026-05-06 05:45 | 35.74375 | -112.54486 | 28960 ft | 242 kts | 92° |
| 2026-05-06 05:45 | 35.74070 | -112.52456 | 28959 ft | 241 kts | 92° |
| 2026-05-06 05:46 | 35.73764 | -112.50424 | 28956 ft | 241 kts | 92° |
| 2026-05-06 05:46 | 35.73457 | -112.48389 | 28956 ft | 241 kts | 92° |
| 2026-05-06 05:46 | 35.73150 | -112.46360 | 28961 ft | 241 kts | 92° |
| 2026-05-06 05:46 | 35.72843 | -112.44320 | 28971 ft | 243 kts | 92° |
| 2026-05-06 05:47 | 35.72533 | -112.42264 | 28972 ft | 246 kts | 92° |
| 2026-05-06 05:47 | 35.72217 | -112.40181 | 28973 ft | 248 kts | 92° |
| 2026-05-06 05:47 | 35.71898 | -112.38086 | 28973 ft | 250 kts | 92° |
| 2026-05-06 05:47 | 35.71577 | -112.35983 | 28977 ft | 249 kts | 92° |
| 2026-05-06 05:48 | 35.71259 | -112.33896 | 28979 ft | 247 kts | 92° |
| 2026-05-06 05:48 | 35.70947 | -112.31847 | 28982 ft | 246 kts | 92° |
| 2026-05-06 05:48 | 35.70631 | -112.29774 | 28980 ft | 245 kts | 92° |
| 2026-05-06 05:48 | 35.70317 | -112.27712 | 28978 ft | 245 kts | 92° |
| 2026-05-06 05:49 | 35.70003 | -112.25655 | 28973 ft | 244 kts | 92° |
| 2026-05-06 05:49 | 35.69689 | -112.23608 | 28972 ft | 244 kts | 92° |
| 2026-05-06 05:49 | 35.69375 | -112.21555 | 28971 ft | 244 kts | 92° |
| 2026-05-06 05:49 | 35.69061 | -112.19512 | 28971 ft | 243 kts | 92° |
| 2026-05-06 05:50 | 35.68748 | -112.17466 | 28972 ft | 243 kts | 92° |
| 2026-05-06 05:50 | 35.68432 | -112.15415 | 28972 ft | 243 kts | 92° |
| 2026-05-06 05:50 | 35.68123 | -112.13405 | 28971 ft | 243 kts | 92° |
| 2026-05-06 05:50 | 35.67807 | -112.11349 | 28988 ft | 245 kts | 92° |
| 2026-05-06 05:51 | 35.67487 | -112.09273 | 28987 ft | 248 kts | 92° |
| 2026-05-06 05:51 | 35.67164 | -112.07182 | 28986 ft | 249 kts | 92° |
| 2026-05-06 05:51 | 35.66838 | -112.05080 | 28982 ft | 251 kts | 92° |
| 2026-05-06 05:51 | 35.66511 | -112.02973 | 28983 ft | 251 kts | 92° |
| 2026-05-06 05:52 | 35.66183 | -112.00856 | 28981 ft | 252 kts | 92° |
| 2026-05-06 05:52 | 35.65854 | -111.98735 | 28983 ft | 252 kts | 92° |
| 2026-05-06 05:52 | 35.65526 | -111.96626 | 28982 ft | 251 kts | 93° |
| 2026-05-06 05:52 | 35.65198 | -111.94526 | 28978 ft | 249 kts | 92° |
| 2026-05-06 05:53 | 35.64876 | -111.92451 | 28963 ft | 251 kts | 94° |
| 2026-05-06 05:53 | 35.64547 | -111.90330 | 28965 ft | 254 kts | 94° |
| 2026-05-06 05:53 | 35.64211 | -111.88181 | 28966 ft | 256 kts | 94° |
| 2026-05-06 05:53 | 35.63872 | -111.86021 | 28967 ft | 256 kts | 94° |
| 2026-05-06 05:54 | 35.63515 | -111.83887 | 28962 ft | 256 kts | 98° |
| 2026-05-06 05:54 | 35.62878 | -111.81819 | 28959 ft | 261 kts | 108° |
| 2026-05-06 05:54 | 35.61924 | -111.79897 | 28949 ft | 266 kts | 116° |
| 2026-05-06 05:54 | 35.60884 | -111.78017 | 28927 ft | 265 kts | 116° |
| 2026-05-06 05:55 | 35.59855 | -111.76127 | 28926 ft | 265 kts | 116° |
| 2026-05-06 05:55 | 35.58827 | -111.74244 | 28935 ft | 265 kts | 117° |
| 2026-05-06 05:55 | 35.57795 | -111.72367 | 28935 ft | 265 kts | 117° |
| 2026-05-06 05:55 | 35.56776 | -111.70512 | 28935 ft | 265 kts | 116° |
| 2026-05-06 05:56 | 35.55748 | -111.68639 | 28934 ft | 265 kts | 117° |
| 2026-05-06 05:56 | 35.54718 | -111.66764 | 28934 ft | 265 kts | 117° |
| 2026-05-06 05:56 | 35.53685 | -111.64884 | 28934 ft | 265 kts | 117° |
| 2026-05-06 05:56 | 35.52651 | -111.63005 | 28934 ft | 265 kts | 117° |
| 2026-05-06 05:57 | 35.51618 | -111.61128 | 28945 ft | 265 kts | 117° |
| 2026-05-06 05:57 | 35.50590 | -111.59261 | 28945 ft | 265 kts | 117° |
| 2026-05-06 05:57 | 35.49557 | -111.57386 | 28945 ft | 265 kts | 117° |
| 2026-05-06 05:57 | 35.48526 | -111.55512 | 28947 ft | 267 kts | 119° |
| 2026-05-06 05:58 | 35.47470 | -111.53593 | 28929 ft | 275 kts | 120° |
| 2026-05-06 05:58 | 35.46385 | -111.51629 | 28930 ft | 281 kts | 120° |
| 2026-05-06 05:58 | 35.45284 | -111.49641 | 28942 ft | 280 kts | 120° |
| 2026-05-06 05:58 | 35.44211 | -111.47701 | 28940 ft | 277 kts | 120° |
| 2026-05-06 05:59 | 35.43132 | -111.45748 | 28936 ft | 275 kts | 120° |
| 2026-05-06 05:59 | 35.42059 | -111.43806 | 28932 ft | 274 kts | 120° |
| 2026-05-06 05:59 | 35.40990 | -111.41873 | 28931 ft | 273 kts | 120° |
| 2026-05-06 05:59 | 35.39923 | -111.39946 | 28916 ft | 273 kts | 120° |
| 2026-05-06 06:00 | 35.38856 | -111.38020 | 28917 ft | 274 kts | 120° |
| 2026-05-06 06:00 | 35.37784 | -111.36086 | 28925 ft | 275 kts | 120° |
| 2026-05-06 06:00 | 35.36707 | -111.34142 | 28930 ft | 276 kts | 120° |
| 2026-05-06 06:00 | 35.35626 | -111.32195 | 28932 ft | 277 kts | 120° |
| 2026-05-06 06:01 | 35.34540 | -111.30240 | 28933 ft | 277 kts | 120° |
| 2026-05-06 06:01 | 35.33457 | -111.28290 | 28933 ft | 277 kts | 120° |
| 2026-05-06 06:01 | 35.32385 | -111.26361 | 28921 ft | 277 kts | 120° |
| 2026-05-06 06:01 | 35.31298 | -111.24407 | 28922 ft | 278 kts | 120° |
| 2026-05-06 06:02 | 35.30203 | -111.22437 | 28933 ft | 282 kts | 121° |
| 2026-05-06 06:02 | 35.29090 | -111.20437 | 28937 ft | 286 kts | 122° |
| 2026-05-06 06:02 | 35.27963 | -111.18417 | 28941 ft | 285 kts | 122° |
| 2026-05-06 06:02 | 35.26847 | -111.16417 | 28934 ft | 284 kts | 122° |
| 2026-05-06 06:03 | 35.25739 | -111.14426 | 28929 ft | 283 kts | 121° |
| 2026-05-06 06:03 | 35.24628 | -111.12432 | 28918 ft | 284 kts | 123° |
| 2026-05-06 06:03 | 35.23511 | -111.10435 | 28931 ft | 286 kts | 123° |
| 2026-05-06 06:03 | 35.22398 | -111.08445 | 28936 ft | 288 kts | 123° |
| 2026-05-06 06:04 | 35.21268 | -111.06423 | 28947 ft | 289 kts | 123° |
| 2026-05-06 06:04 | 35.20131 | -111.04389 | 28945 ft | 290 kts | 123° |
| 2026-05-06 06:04 | 35.18992 | -111.02353 | 28943 ft | 290 kts | 123° |
| 2026-05-06 06:04 | 35.17848 | -111.00311 | 28942 ft | 291 kts | 123° |
| 2026-05-06 06:05 | 35.16703 | -110.98267 | 28953 ft | 291 kts | 123° |
| 2026-05-06 06:05 | 35.15559 | -110.96226 | 29003 ft | 291 kts | 123° |
| 2026-05-06 06:05 | 35.14414 | -110.94186 | 29008 ft | 289 kts | 123° |
| 2026-05-06 06:05 | 35.13297 | -110.92196 | 29014 ft | 287 kts | 123° |
| 2026-05-06 06:06 | 35.12169 | -110.90184 | 29006 ft | 288 kts | 126° |
| 2026-05-06 06:06 | 35.11027 | -110.88154 | 29016 ft | 291 kts | 126° |
| 2026-05-06 06:06 | 35.09875 | -110.86107 | 29032 ft | 292 kts | 126° |
| 2026-05-06 06:06 | 35.08722 | -110.84055 | 29043 ft | 293 kts | 126° |
| 2026-05-06 06:07 | 35.07952 | -110.82685 | 29053 ft | 294 kts | 126° |
| 2026-05-06 06:07 | 35.06411 | -110.79950 | 29047 ft | 295 kts | 129° |
| 2026-05-06 06:07 | 35.05570 | -110.78604 | 29047 ft | 295 kts | 133° |
| 2026-05-06 06:07 | 35.04250 | -110.76666 | 29050 ft | 297 kts | 134° |
| 2026-05-06 06:08 | 35.02931 | -110.74731 | 29053 ft | 296 kts | 134° |
| 2026-05-06 06:08 | 35.01649 | -110.72827 | 29047 ft | 294 kts | 133° |
| 2026-05-06 06:08 | 35.00359 | -110.70911 | 29046 ft | 292 kts | 134° |
| 2026-05-06 06:08 | 34.99065 | -110.68998 | 29045 ft | 291 kts | 134° |
| 2026-05-06 06:09 | 34.97779 | -110.67101 | 29050 ft | 291 kts | 134° |
| 2026-05-06 06:09 | 34.96491 | -110.65198 | 29048 ft | 290 kts | 134° |
| 2026-05-06 06:09 | 34.95204 | -110.63298 | 29042 ft | 290 kts | 134° |
| 2026-05-06 06:09 | 34.93918 | -110.61399 | 28955 ft | 291 kts | 137° |
| 2026-05-06 06:10 | 34.92616 | -110.59484 | 28958 ft | 297 kts | 137° |
| 2026-05-06 06:10 | 34.91285 | -110.57527 | 28967 ft | 301 kts | 137° |
| 2026-05-06 06:10 | 34.88625 | -110.53599 | 28967 ft | 298 kts | 137° |
| 2026-05-06 06:11 | 34.87315 | -110.51672 | 28962 ft | 296 kts | 137° |
| 2026-05-06 06:11 | 34.85997 | -110.49737 | 28967 ft | 295 kts | 137° |
| 2026-05-06 06:11 | 34.84691 | -110.47818 | 28964 ft | 295 kts | 137° |
| 2026-05-06 06:11 | 34.83384 | -110.45897 | 28947 ft | 294 kts | 139° |
| 2026-05-06 06:12 | 34.82079 | -110.43982 | 28948 ft | 294 kts | 139° |
| 2026-05-06 06:12 | 34.80771 | -110.42063 | 28947 ft | 294 kts | 139° |
| 2026-05-06 06:12 | 34.79466 | -110.40149 | 28947 ft | 294 kts | 139° |
| 2026-05-06 06:12 | 34.78160 | -110.38235 | 28955 ft | 294 kts | 139° |
| 2026-05-06 06:13 | 34.76850 | -110.36318 | 28958 ft | 296 kts | 139° |
| 2026-05-06 06:13 | 34.75529 | -110.34384 | 28961 ft | 298 kts | 139° |
| 2026-05-06 06:13 | 34.74221 | -110.32467 | 28950 ft | 299 kts | 142° |
| 2026-05-06 06:13 | 34.72882 | -110.30512 | 28953 ft | 300 kts | 142° |
| 2026-05-06 06:14 | 34.70200 | -110.26593 | 28965 ft | 303 kts | 142° |
| 2026-05-06 06:14 | 34.67505 | -110.22657 | 28968 ft | 304 kts | 142° |
| 2026-05-06 06:15 | 34.64814 | -110.18730 | 28948 ft | 300 kts | 142° |
| 2026-05-06 06:15 | 34.63481 | -110.16791 | 28953 ft | 298 kts | 142° |
| 2026-05-06 06:15 | 34.62153 | -110.14858 | 28950 ft | 297 kts | 142° |
| 2026-05-06 06:16 | 34.60845 | -110.12953 | 28945 ft | 296 kts | 144° |
| 2026-05-06 06:16 | 34.59527 | -110.11035 | 28947 ft | 296 kts | 144° |
| 2026-05-06 06:16 | 34.58208 | -110.09123 | 28946 ft | 296 kts | 144° |
| 2026-05-06 06:16 | 34.56888 | -110.07205 | 28943 ft | 296 kts | 144° |
| 2026-05-06 06:17 | 34.55571 | -110.05291 | 28931 ft | 296 kts | 146° |
| 2026-05-06 06:17 | 34.54242 | -110.03365 | 28951 ft | 299 kts | 148° |
| 2026-05-06 06:17 | 34.51534 | -109.99445 | 28964 ft | 306 kts | 147° |
| 2026-05-06 06:18 | 34.48825 | -109.95503 | 28955 ft | 302 kts | 147° |
| 2026-05-06 06:18 | 34.47479 | -109.93561 | 28952 ft | 300 kts | 147° |
| 2026-05-06 06:18 | 34.46138 | -109.91626 | 28943 ft | 299 kts | 147° |
| 2026-05-06 06:19 | 34.44816 | -109.89715 | 29044 ft | 299 kts | 147° |
| 2026-05-06 06:19 | 34.43485 | -109.87788 | 29037 ft | 299 kts | 147° |
| 2026-05-06 06:19 | 34.42132 | -109.85838 | 29048 ft | 299 kts | 147° |
| 2026-05-06 06:19 | 34.40808 | -109.83928 | 29047 ft | 299 kts | 147° |
| 2026-05-06 06:20 | 34.39456 | -109.81976 | 29048 ft | 299 kts | 147° |
| 2026-05-06 06:20 | 34.38132 | -109.80067 | 29043 ft | 299 kts | 147° |
| 2026-05-06 06:20 | 34.36798 | -109.78139 | 29039 ft | 298 kts | 150° |
| 2026-05-06 06:20 | 34.35467 | -109.76227 | 29031 ft | 297 kts | 150° |
| 2026-05-06 06:21 | 34.34133 | -109.74309 | 29024 ft | 297 kts | 150° |
| 2026-05-06 06:21 | 34.32800 | -109.72393 | 29017 ft | 297 kts | 150° |
| 2026-05-06 06:21 | 34.31473 | -109.70485 | 29017 ft | 297 kts | 150° |
| 2026-05-06 06:21 | 34.30138 | -109.68567 | 28952 ft | 297 kts | 150° |
| 2026-05-06 06:22 | 34.28810 | -109.66658 | 28964 ft | 297 kts | 150° |
| 2026-05-06 06:22 | 34.27477 | -109.64743 | 28974 ft | 297 kts | 150° |
| 2026-05-06 06:22 | 34.26141 | -109.62827 | 28984 ft | 298 kts | 149° |
| 2026-05-06 06:22 | 34.24868 | -109.60811 | 28999 ft | 303 kts | 146° |
| 2026-05-06 06:23 | 34.22315 | -109.56743 | 29026 ft | 302 kts | 147° |
| 2026-05-06 06:23 | 34.19784 | -109.52721 | 29051 ft | 303 kts | 146° |
| 2026-05-06 06:24 | 34.17240 | -109.48673 | 29075 ft | 302 kts | 147° |
| 2026-05-06 06:24 | 34.15965 | -109.46662 | 29091 ft | 297 kts | 150° |
| 2026-05-06 06:24 | 34.14629 | -109.44797 | 29104 ft | 294 kts | 154° |
| 2026-05-06 06:25 | 34.13285 | -109.42915 | 29114 ft | 297 kts | 153° |
| 2026-05-06 06:25 | 34.11942 | -109.41004 | 29123 ft | 298 kts | 153° |
| 2026-05-06 06:25 | 34.09238 | -109.37193 | 29131 ft | 300 kts | 153° |
| 2026-05-06 06:26 | 34.07873 | -109.35281 | 29131 ft | 301 kts | 153° |
| 2026-05-06 06:26 | 34.06528 | -109.33385 | 29129 ft | 300 kts | 153° |
| 2026-05-06 06:26 | 34.05175 | -109.31472 | 29122 ft | 298 kts | 153° |
| 2026-05-06 06:26 | 34.03839 | -109.29591 | 29120 ft | 294 kts | 153° |
| 2026-05-06 06:27 | 34.02498 | -109.27722 | 29107 ft | 294 kts | 153° |
| 2026-05-06 06:27 | 34.01162 | -109.25851 | 29095 ft | 294 kts | 153° |
| 2026-05-06 06:27 | 33.99837 | -109.23987 | 29080 ft | 293 kts | 153° |
| 2026-05-06 06:27 | 33.98509 | -109.22122 | 29057 ft | 291 kts | 154° |
| 2026-05-06 06:28 | 33.97191 | -109.20288 | 29067 ft | 292 kts | 153° |
| 2026-05-06 06:28 | 33.95852 | -109.18414 | 29055 ft | 296 kts | 153° |
| 2026-05-06 06:28 | 33.94496 | -109.16528 | 29047 ft | 301 kts | 153° |
| 2026-05-06 06:29 | 33.91766 | -109.12677 | 29014 ft | 300 kts | 153° |
| 2026-05-06 06:29 | 33.90412 | -109.10784 | 28996 ft | 296 kts | 154° |
| 2026-05-06 06:29 | 33.89080 | -109.08893 | 28972 ft | 296 kts | 153° |
| 2026-05-06 06:29 | 33.87747 | -109.07042 | 28976 ft | 292 kts | 155° |
| 2026-05-06 06:30 | 33.86394 | -109.05230 | 28928 ft | 296 kts | 155° |
| 2026-05-06 06:30 | 33.85038 | -109.03375 | 28961 ft | 298 kts | 153° |
| 2026-05-06 06:30 | 33.83699 | -109.01443 | 28957 ft | 304 kts | 152° |
| 2026-05-06 06:31 | 33.80949 | -108.97590 | 28951 ft | 298 kts | 154° |
| 2026-05-06 06:31 | 33.79594 | -108.95718 | 28949 ft | 296 kts | 154° |
| 2026-05-06 06:31 | 33.78251 | -108.93845 | 28946 ft | 295 kts | 154° |
| 2026-05-06 06:31 | 33.76910 | -108.91974 | 28950 ft | 294 kts | 154° |
| 2026-05-06 06:32 | 33.75568 | -108.90122 | 28936 ft | 293 kts | 154° |
| 2026-05-06 06:32 | 33.74215 | -108.88262 | 28934 ft | 298 kts | 154° |
| 2026-05-06 06:32 | 33.72844 | -108.86356 | 28942 ft | 303 kts | 153° |
| 2026-05-06 06:33 | 33.70099 | -108.82526 | 28954 ft | 301 kts | 153° |
| 2026-05-06 06:33 | 33.68733 | -108.80636 | 28952 ft | 299 kts | 153° |
| 2026-05-06 06:33 | 33.67383 | -108.78769 | 28941 ft | 298 kts | 154° |
| 2026-05-06 06:33 | 33.66028 | -108.76896 | 28935 ft | 297 kts | 154° |
| 2026-05-06 06:34 | 33.64674 | -108.75025 | 28940 ft | 297 kts | 154° |
| 2026-05-06 06:34 | 33.63314 | -108.73145 | 28945 ft | 297 kts | 154° |
| 2026-05-06 06:34 | 33.61956 | -108.71275 | 28938 ft | 298 kts | 154° |
| 2026-05-06 06:34 | 33.60600 | -108.69393 | 28941 ft | 299 kts | 153° |
| 2026-05-06 06:35 | 33.59235 | -108.67497 | 28939 ft | 299 kts | 153° |
| 2026-05-06 06:35 | 33.57867 | -108.65623 | 28942 ft | 299 kts | 154° |
| 2026-05-06 06:35 | 33.56493 | -108.63729 | 28944 ft | 301 kts | 153° |
| 2026-05-06 06:35 | 33.55130 | -108.61855 | 28926 ft | 300 kts | 153° |
| 2026-05-06 06:36 | 33.53766 | -108.59957 | 28934 ft | 302 kts | 153° |
| 2026-05-06 06:36 | 33.52383 | -108.58065 | 28921 ft | 300 kts | 153° |
| 2026-05-06 06:36 | 33.51015 | -108.56193 | 28921 ft | 297 kts | 154° |
| 2026-05-06 06:36 | 33.49664 | -108.54324 | 28928 ft | 296 kts | 153° |
| 2026-05-06 06:37 | 33.48321 | -108.52471 | 28931 ft | 294 kts | 154° |
| 2026-05-06 06:37 | 33.46970 | -108.50624 | 28929 ft | 295 kts | 154° |
| 2026-05-06 06:37 | 33.45611 | -108.48755 | 28920 ft | 301 kts | 153° |
| 2026-05-06 06:37 | 33.44236 | -108.46866 | 28929 ft | 300 kts | 154° |
| 2026-05-06 06:38 | 33.42855 | -108.45012 | 28851 ft | 292 kts | 156° |
| 2026-05-06 06:38 | 33.41501 | -108.43174 | 28926 ft | 300 kts | 152° |
| 2026-05-06 06:38 | 33.40162 | -108.41262 | 28928 ft | 303 kts | 152° |
| 2026-05-06 06:38 | 33.38789 | -108.39362 | 28933 ft | 300 kts | 153° |
| 2026-05-06 06:39 | 33.37418 | -108.37521 | 28931 ft | 290 kts | 154° |
| 2026-05-06 06:39 | 33.36061 | -108.35694 | 28933 ft | 296 kts | 153° |
| 2026-05-06 06:39 | 33.34701 | -108.33814 | 28887 ft | 299 kts | 152° |
| 2026-05-06 06:39 | 33.33343 | -108.31939 | 28921 ft | 297 kts | 153° |
| 2026-05-06 06:40 | 33.32001 | -108.30109 | 28919 ft | 295 kts | 153° |
| 2026-05-06 06:40 | 33.30649 | -108.28275 | 28914 ft | 293 kts | 154° |
| 2026-05-06 06:40 | 33.29302 | -108.26446 | 28935 ft | 294 kts | 153° |
| 2026-05-06 06:40 | 33.27959 | -108.24594 | 28925 ft | 295 kts | 153° |
| 2026-05-06 06:41 | 33.26598 | -108.22751 | 28937 ft | 292 kts | 154° |
| 2026-05-06 06:41 | 33.25249 | -108.20937 | 28919 ft | 294 kts | 153° |
| 2026-05-06 06:41 | 33.23910 | -108.19079 | 28919 ft | 295 kts | 153° |
| 2026-05-06 06:41 | 33.22568 | -108.17236 | 28910 ft | 292 kts | 153° |
| 2026-05-06 06:42 | 33.21228 | -108.15429 | 28915 ft | 291 kts | 154° |
| 2026-05-06 06:42 | 33.19882 | -108.13590 | 28924 ft | 296 kts | 153° |
| 2026-05-06 06:42 | 33.18525 | -108.11720 | 28930 ft | 298 kts | 153° |
| 2026-05-06 06:42 | 33.17181 | -108.09867 | 28923 ft | 299 kts | 153° |
| 2026-05-06 06:43 | 33.15822 | -108.07992 | 28918 ft | 297 kts | 153° |
| 2026-05-06 06:43 | 33.14468 | -108.06132 | 28915 ft | 296 kts | 153° |
| 2026-05-06 06:43 | 33.13124 | -108.04282 | 28909 ft | 292 kts | 153° |
| 2026-05-06 06:43 | 33.11788 | -108.02456 | 28910 ft | 293 kts | 153° |
| 2026-05-06 06:44 | 33.10439 | -108.00621 | 28907 ft | 295 kts | 153° |
| 2026-05-06 06:44 | 33.09091 | -107.98775 | 28906 ft | 296 kts | 153° |
| 2026-05-06 06:44 | 33.07734 | -107.96912 | 28909 ft | 297 kts | 153° |
| 2026-05-06 06:44 | 33.06375 | -107.95051 | 28910 ft | 298 kts | 152° |
| 2026-05-06 06:45 | 33.05012 | -107.93184 | 28909 ft | 297 kts | 152° |
| 2026-05-06 06:45 | 33.03662 | -107.91332 | 28911 ft | 295 kts | 153° |
| 2026-05-06 06:45 | 33.02338 | -107.89525 | 28907 ft | 293 kts | 153° |
| 2026-05-06 06:45 | 33.00994 | -107.87693 | 28885 ft | 292 kts | 153° |
| 2026-05-06 06:46 | 32.99655 | -107.85870 | 28884 ft | 293 kts | 153° |
| 2026-05-06 06:46 | 32.98316 | -107.84035 | 28893 ft | 293 kts | 153° |
| 2026-05-06 06:46 | 32.96975 | -107.82208 | 28885 ft | 292 kts | 153° |
| 2026-05-06 06:46 | 32.95645 | -107.80401 | 28890 ft | 290 kts | 153° |
| 2026-05-06 06:47 | 32.94304 | -107.78579 | 28890 ft | 294 kts | 153° |
| 2026-05-06 06:47 | 32.92954 | -107.76747 | 28886 ft | 295 kts | 152° |
| 2026-05-06 06:47 | 32.91617 | -107.74903 | 28884 ft | 292 kts | 152° |
| 2026-05-06 06:47 | 32.90282 | -107.73089 | 28873 ft | 291 kts | 153° |
| 2026-05-06 06:48 | 32.88931 | -107.71276 | 28872 ft | 294 kts | 153° |
| 2026-05-06 06:48 | 32.87575 | -107.69433 | 28880 ft | 296 kts | 152° |
| 2026-05-06 06:48 | 32.86219 | -107.67579 | 28888 ft | 297 kts | 152° |
| 2026-05-06 06:48 | 32.84868 | -107.65737 | 28876 ft | 294 kts | 153° |
| 2026-05-06 06:49 | 32.83521 | -107.63910 | 28880 ft | 293 kts | 153° |
| 2026-05-06 06:49 | 32.82189 | -107.62111 | 28871 ft | 292 kts | 153° |
| 2026-05-06 06:49 | 32.80851 | -107.60298 | 28862 ft | 292 kts | 153° |
| 2026-05-06 06:49 | 32.79513 | -107.58487 | 28856 ft | 291 kts | 153° |
| 2026-05-06 06:50 | 32.78171 | -107.56671 | 28858 ft | 292 kts | 153° |
| 2026-05-06 06:50 | 32.76829 | -107.54853 | 28859 ft | 293 kts | 153° |
| 2026-05-06 06:50 | 32.75478 | -107.53026 | 28861 ft | 293 kts | 153° |
| 2026-05-06 06:50 | 32.74134 | -107.51208 | 28859 ft | 294 kts | 153° |
| 2026-05-06 06:51 | 32.72800 | -107.49405 | 28866 ft | 294 kts | 153° |
| 2026-05-06 06:51 | 32.71434 | -107.47560 | 28863 ft | 294 kts | 153° |
| 2026-05-06 06:51 | 32.70106 | -107.45766 | 28848 ft | 293 kts | 152° |
| 2026-05-06 06:51 | 32.68759 | -107.43949 | 28847 ft | 294 kts | 152° |
| 2026-05-06 06:52 | 32.67406 | -107.42126 | 28849 ft | 294 kts | 152° |
| 2026-05-06 06:52 | 32.66050 | -107.40298 | 28847 ft | 294 kts | 153° |
| 2026-05-06 06:52 | 32.64701 | -107.38477 | 28846 ft | 294 kts | 152° |
| 2026-05-06 06:52 | 32.63344 | -107.36652 | 28849 ft | 295 kts | 152° |
| 2026-05-06 06:53 | 32.62425 | -107.35418 | 28850 ft | 296 kts | 152° |
| 2026-05-06 06:53 | 32.61080 | -107.33608 | 28851 ft | 297 kts | 152° |
| 2026-05-06 06:53 | 32.59715 | -107.31771 | 28844 ft | 297 kts | 152° |
| 2026-05-06 06:53 | 32.58345 | -107.29929 | 28846 ft | 298 kts | 152° |
| 2026-05-06 06:54 | 32.56975 | -107.28088 | 28850 ft | 298 kts | 152° |
| 2026-05-06 06:54 | 32.55603 | -107.26245 | 28857 ft | 298 kts | 152° |
| 2026-05-06 06:54 | 32.54231 | -107.24401 | 28833 ft | 295 kts | 152° |
| 2026-05-06 06:54 | 32.52882 | -107.22593 | 28855 ft | 292 kts | 152° |
| 2026-05-06 06:55 | 32.51531 | -107.20784 | 28857 ft | 295 kts | 152° |
| 2026-05-06 06:55 | 32.50162 | -107.18950 | 28857 ft | 297 kts | 152° |
| 2026-05-06 06:55 | 32.48793 | -107.17113 | 28819 ft | 297 kts | 152° |
| 2026-05-06 06:55 | 32.47440 | -107.15294 | 28835 ft | 293 kts | 152° |
| 2026-05-06 06:56 | 32.46090 | -107.13490 | 28834 ft | 292 kts | 152° |
| 2026-05-06 06:56 | 32.44745 | -107.11695 | 28834 ft | 291 kts | 152° |
| 2026-05-06 06:56 | 32.43403 | -107.09903 | 28837 ft | 291 kts | 152° |
| 2026-05-06 06:56 | 32.42052 | -107.08103 | 28839 ft | 294 kts | 152° |
| 2026-05-06 06:57 | 32.40693 | -107.06288 | 28842 ft | 295 kts | 152° |
| 2026-05-06 06:57 | 32.39327 | -107.04461 | 28827 ft | 296 kts | 151° |
| 2026-05-06 06:57 | 32.37952 | -107.02626 | 28835 ft | 298 kts | 151° |
| 2026-05-06 06:57 | 32.36597 | -107.00818 | 28836 ft | 299 kts | 151° |
| 2026-05-06 06:58 | 32.35217 | -106.98978 | 28838 ft | 299 kts | 151° |
| 2026-05-06 06:58 | 32.33835 | -106.97136 | 29030 ft | 299 kts | 151° |
| 2026-05-06 06:58 | 32.32448 | -106.95291 | 29031 ft | 300 kts | 151° |
| 2026-05-06 06:58 | 32.31063 | -106.93447 | 29032 ft | 300 kts | 151° |
| 2026-05-06 06:59 | 32.29676 | -106.91601 | 29031 ft | 299 kts | 151° |
| 2026-05-06 06:59 | 32.28302 | -106.89769 | 29027 ft | 297 kts | 151° |
| 2026-05-06 06:59 | 32.26937 | -106.87953 | 29024 ft | 295 kts | 152° |
| 2026-05-06 06:59 | 32.25572 | -106.86144 | 28831 ft | 294 kts | 152° |
| 2026-05-06 07:00 | 32.24213 | -106.84342 | 28834 ft | 293 kts | 152° |
| 2026-05-06 07:00 | 32.22859 | -106.82544 | 28836 ft | 293 kts | 152° |
| 2026-05-06 07:00 | 32.21504 | -106.80748 | 28845 ft | 293 kts | 152° |
| 2026-05-06 07:00 | 32.20151 | -106.78953 | 28856 ft | 292 kts | 152° |
| 2026-05-06 07:01 | 32.18795 | -106.77157 | 28868 ft | 292 kts | 152° |
| 2026-05-06 07:01 | 32.17460 | -106.75388 | 28871 ft | 292 kts | 152° |
| 2026-05-06 07:01 | 32.16110 | -106.73601 | 28883 ft | 292 kts | 152° |
| 2026-05-06 07:01 | 32.14749 | -106.71804 | 28895 ft | 294 kts | 152° |
| 2026-05-06 07:02 | 32.13379 | -106.69995 | 28912 ft | 296 kts | 152° |
| 2026-05-06 07:02 | 32.12004 | -106.68174 | 28914 ft | 298 kts | 151° |
| 2026-05-06 07:02 | 32.10618 | -106.66342 | 28926 ft | 299 kts | 151° |
| 2026-05-06 07:03 | 32.07829 | -106.62659 | 28946 ft | 302 kts | 151° |
| 2026-05-06 07:03 | 32.05058 | -106.58996 | 28926 ft | 299 kts | 152° |
| 2026-05-06 07:03 | 32.03688 | -106.57185 | 28948 ft | 295 kts | 152° |
| 2026-05-06 07:04 | 32.02307 | -106.55370 | 28949 ft | 292 kts | 152° |
| 2026-05-06 07:04 | 32.00972 | -106.53617 | 28949 ft | 291 kts | 152° |
| 2026-05-06 07:04 | 31.99602 | -106.51815 | 28939 ft | 293 kts | 152° |
| 2026-05-06 07:04 | 31.98252 | -106.50048 | 28949 ft | 295 kts | 152° |
| 2026-05-06 07:05 | 31.96881 | -106.48242 | 28970 ft | 296 kts | 152° |
| 2026-05-06 07:05 | 31.95506 | -106.46428 | 28983 ft | 297 kts | 152° |
| 2026-05-06 07:05 | 31.94122 | -106.44613 | 28997 ft | 298 kts | 152° |
| 2026-05-06 07:05 | 31.92736 | -106.42794 | 29009 ft | 299 kts | 152° |
| 2026-05-06 07:06 | 31.91346 | -106.40968 | 29008 ft | 299 kts | 152° |
| 2026-05-06 07:06 | 31.89954 | -106.39142 | 29014 ft | 300 kts | 152° |
| 2026-05-06 07:06 | 31.88563 | -106.37317 | 29008 ft | 299 kts | 152° |
| 2026-05-06 07:06 | 31.87177 | -106.35496 | 29004 ft | 296 kts | 152° |
| 2026-05-06 07:07 | 31.85807 | -106.33701 | 28995 ft | 295 kts | 152° |
| 2026-05-06 07:07 | 31.84428 | -106.31904 | 28993 ft | 296 kts | 152° |
| 2026-05-06 07:07 | 31.83047 | -106.30097 | 28983 ft | 298 kts | 151° |
| 2026-05-06 07:07 | 31.81831 | -106.28070 | 28984 ft | 317 kts | 137° |
| 2026-05-06 07:08 | 31.80940 | -106.25609 | 28976 ft | 337 kts | 123° |
| 2026-05-06 07:08 | 31.79647 | -106.20272 | 28954 ft | 339 kts | 122° |
| 2026-05-06 07:09 | 31.78320 | -106.14943 | 28932 ft | 340 kts | 122° |
| 2026-05-06 07:09 | 31.76999 | -106.09587 | 28910 ft | 341 kts | 122° |
| 2026-05-06 07:10 | 31.75668 | -106.04226 | 28884 ft | 342 kts | 122° |
| 2026-05-06 07:10 | 31.74334 | -105.98854 | 28831 ft | 342 kts | 123° |
| 2026-05-06 07:11 | 31.73035 | -105.93630 | 28827 ft | 337 kts | 123° |
| 2026-05-06 07:11 | 31.71719 | -105.88359 | 28833 ft | 335 kts | 123° |
| 2026-05-06 07:12 | 31.70411 | -105.83125 | 28828 ft | 334 kts | 123° |
| 2026-05-06 07:12 | 31.69089 | -105.77862 | 28832 ft | 337 kts | 123° |
| 2026-05-06 07:13 | 31.67762 | -105.72558 | 28837 ft | 339 kts | 123° |
| 2026-05-06 07:13 | 31.66424 | -105.67241 | 28850 ft | 340 kts | 123° |
| 2026-05-06 07:14 | 31.65097 | -105.61961 | 28834 ft | 338 kts | 123° |
| 2026-05-06 07:14 | 31.63775 | -105.56718 | 28833 ft | 333 kts | 123° |
| 2026-05-06 07:15 | 31.62457 | -105.51518 | 28835 ft | 332 kts | 123° |
| 2026-05-06 07:15 | 31.61141 | -105.46319 | 28832 ft | 333 kts | 123° |
| 2026-05-06 07:16 | 31.59829 | -105.41150 | 28837 ft | 333 kts | 123° |
| 2026-05-06 07:16 | 31.58504 | -105.35939 | 28837 ft | 334 kts | 123° |
| 2026-05-06 07:17 | 31.57173 | -105.30717 | 28842 ft | 334 kts | 123° |
| 2026-05-06 07:17 | 31.55836 | -105.25481 | 28849 ft | 335 kts | 123° |
| 2026-05-06 07:18 | 31.54495 | -105.20235 | 28849 ft | 336 kts | 123° |
| 2026-05-06 07:18 | 31.53159 | -105.15018 | 28850 ft | 337 kts | 123° |
| 2026-05-06 07:19 | 31.51808 | -105.09757 | 28852 ft | 337 kts | 123° |
| 2026-05-06 07:19 | 31.50455 | -105.04495 | 28845 ft | 337 kts | 123° |
| 2026-05-06 07:20 | 31.49102 | -104.99243 | 28846 ft | 336 kts | 123° |
| 2026-05-06 07:20 | 31.47751 | -104.94010 | 28842 ft | 335 kts | 123° |
| 2026-05-06 07:21 | 31.46399 | -104.88784 | 28832 ft | 337 kts | 122° |
| 2026-05-06 07:21 | 31.45005 | -104.83432 | 28843 ft | 347 kts | 122° |
| 2026-05-06 07:22 | 31.43630 | -104.78081 | 28837 ft | 342 kts | 122° |
| 2026-05-06 07:22 | 31.42245 | -104.72786 | 28836 ft | 339 kts | 123° |
| 2026-05-06 07:23 | 31.40874 | -104.67519 | 28830 ft | 338 kts | 123° |
| 2026-05-06 07:23 | 31.39501 | -104.62266 | 28827 ft | 338 kts | 123° |
| 2026-05-06 07:24 | 31.38109 | -104.56956 | 28830 ft | 343 kts | 122° |
| 2026-05-06 07:24 | 31.36713 | -104.51607 | 28841 ft | 343 kts | 122° |
| 2026-05-06 07:25 | 31.35325 | -104.46326 | 28832 ft | 341 kts | 123° |
| 2026-05-06 07:25 | 31.33932 | -104.41032 | 28830 ft | 340 kts | 123° |
| 2026-05-06 07:26 | 31.32539 | -104.35744 | 28826 ft | 340 kts | 123° |
| 2026-05-06 07:26 | 31.31146 | -104.30466 | 28827 ft | 339 kts | 123° |
| 2026-05-06 07:27 | 31.29755 | -104.25210 | 28822 ft | 338 kts | 123° |
| 2026-05-06 07:27 | 31.28365 | -104.19959 | 28811 ft | 336 kts | 122° |
| 2026-05-06 07:28 | 31.26957 | -104.14682 | 28837 ft | 344 kts | 122° |
| 2026-05-06 07:28 | 31.24833 | -104.06662 | 28831 ft | 342 kts | 122° |
| 2026-05-06 07:29 | 31.23426 | -104.01405 | 28825 ft | 340 kts | 122° |
| 2026-05-06 07:29 | 31.22022 | -103.96143 | 28822 ft | 339 kts | 122° |
| 2026-05-06 07:30 | 31.20617 | -103.90899 | 28802 ft | 338 kts | 123° |
| 2026-05-06 07:30 | 31.19213 | -103.85661 | 28816 ft | 337 kts | 123° |
| 2026-05-06 07:31 | 31.17788 | -103.80378 | 28841 ft | 345 kts | 122° |
| 2026-05-06 07:31 | 31.16344 | -103.74993 | 28838 ft | 348 kts | 122° |
| 2026-05-06 07:32 | 31.14903 | -103.69636 | 28843 ft | 343 kts | 122° |
| 2026-05-06 07:32 | 31.13478 | -103.64372 | 28842 ft | 341 kts | 122° |
| 2026-05-06 07:33 | 31.12052 | -103.59098 | 28839 ft | 340 kts | 122° |
| 2026-05-06 07:33 | 31.10627 | -103.53850 | 28835 ft | 340 kts | 123° |
| 2026-05-06 07:34 | 31.09186 | -103.48550 | 28832 ft | 345 kts | 122° |
| 2026-05-06 07:34 | 31.07722 | -103.43168 | 28815 ft | 349 kts | 121° |
| 2026-05-06 07:35 | 31.06246 | -103.37749 | 28808 ft | 351 kts | 121° |
| 2026-05-06 07:35 | 31.04781 | -103.32371 | 28793 ft | 348 kts | 122° |
| 2026-05-06 07:36 | 31.03371 | -103.27224 | 28786 ft | 346 kts | 122° |
| 2026-05-06 07:36 | 31.01918 | -103.21924 | 28783 ft | 345 kts | 122° |
| 2026-05-06 07:37 | 31.00455 | -103.16595 | 28773 ft | 344 kts | 122° |